Minneapolis, Minnesota
Traffic Map
Current Weather Conditions
Minneapolis, Minnesota
Broken Clouds Light Rain
Broken Clouds
23°
Feels Like: 23°
Wind Chill: 23° Ceiling: 5500
Heat Index: 23° Visibility: 10mi
Dew Point: 11° Wind: 10mph
Humidity: 46% Direction: 140° (SE)
Pressure: 29.89in Gusts: 0mph
Raw Report DataKMSP 310353Z 14009KT 10SM -RA BKN055 BKN250 23/11 A2989 RMK AO2 RAB46 SLP118 OCNL LTGIC DSNT SE CB DSNT SE MOV NE P0000 T02330111 $
Traffic Incident Summary
Active as of:
Severity:
Category:
InformationThere was an issue retrieving the traffic information for this location. Please try a different location or try again shortly.
Advertisements
Track Severe Weather on mobile